sensor_id;sensor_type;location;lat;lon;timestamp;temperature;humidity
21163;DHT22;10739;52.198;20.908;2023-07-13T00:00:19;19.30;99.90
21163;DHT22;10739;52.198;20.908;2023-07-13T00:02:46;18.50;99.90
21163;DHT22;10739;52.198;20.908;2023-07-13T00:05:12;18.50;99.90
21163;DHT22;10739;52.198;20.908;2023-07-13T00:07:38;18.50;99.90
21163;DHT22;10739;52.198;20.908;2023-07-13T00:10:05;18.50;99.90
21163;DHT22;10739;52.198;20.908;2023-07-13T00:12:35;18.50;99.90
21163;DHT22;10739;52.198;20.908;2023-07-13T00:15:11;18.50;99.90
21163;DHT22;10739;52.198;20.908;2023-07-13T00:17:42;18.50;99.90
21163;DHT22;10739;52.198;20.908;2023-07-13T00:20:11;18.50;99.90
21163;DHT22;10739;52.198;20.908;2023-07-13T00:22:38;18.50;99.90
21163;DHT22;10739;52.198;20.908;2023-07-13T00:25:04;18.50;99.90
21163;DHT22;10739;52.198;20.908;2023-07-13T00:27:31;18.50;99.90
21163;DHT22;10739;52.198;20.908;2023-07-13T00:29:58;18.50;99.90
21163;DHT22;10739;52.198;20.908;2023-07-13T00:32:24;18.50;99.90
21163;DHT22;10739;52.198;20.908;2023-07-13T00:34:52;18.50;99.90
21163;DHT22;10739;52.198;20.908;2023-07-13T00:37:18;18.40;99.90
21163;DHT22;10739;52.198;20.908;2023-07-13T00:39:45;18.40;99.90
21163;DHT22;10739;52.198;20.908;2023-07-13T00:42:11;18.40;99.90
21163;DHT22;10739;52.198;20.908;2023-07-13T00:44:37;18.40;99.90
21163;DHT22;10739;52.198;20.908;2023-07-13T00:47:05;18.40;99.90
21163;DHT22;10739;52.198;20.908;2023-07-13T00:49:33;18.40;99.90
21163;DHT22;10739;52.198;20.908;2023-07-13T00:52:08;18.30;99.90
21163;DHT22;10739;52.198;20.908;2023-07-13T00:54:41;18.40;99.90
21163;DHT22;10739;52.198;20.908;2023-07-13T00:57:15;18.40;99.90
21163;DHT22;10739;52.198;20.908;2023-07-13T00:59:49;18.40;99.90
21163;DHT22;10739;52.198;20.908;2023-07-13T01:02:21;18.50;99.90
21163;DHT22;10739;52.198;20.908;2023-07-13T01:04:48;18.50;99.90
21163;DHT22;10739;52.198;20.908;2023-07-13T01:07:14;18.50;99.90
21163;DHT22;10739;52.198;20.908;2023-07-13T01:09:41;18.50;99.90
21163;DHT22;10739;52.198;20.908;2023-07-13T01:12:07;18.50;99.90
21163;DHT22;10739;52.198;20.908;2023-07-13T01:14:34;18.50;99.90
21163;DHT22;10739;52.198;20.908;2023-07-13T01:17:00;18.50;99.90
21163;DHT22;10739;52.198;20.908;2023-07-13T01:19:39;18.40;99.90
21163;DHT22;10739;52.198;20.908;2023-07-13T01:22:12;18.40;99.90
21163;DHT22;10739;52.198;20.908;2023-07-13T01:24:42;18.30;99.90
21163;DHT22;10739;52.198;20.908;2023-07-13T01:27:12;18.30;99.90
21163;DHT22;10739;52.198;20.908;2023-07-13T01:29:41;18.30;99.90
21163;DHT22;10739;52.198;20.908;2023-07-13T01:32:10;18.30;99.90
21163;DHT22;10739;52.198;20.908;2023-07-13T01:34:38;18.30;99.90
21163;DHT22;10739;52.198;20.908;2023-07-13T01:37:09;18.30;99.90
21163;DHT22;10739;52.198;20.908;2023-07-13T01:39:36;18.20;99.90
21163;DHT22;10739;52.198;20.908;2023-07-13T01:42:03;18.20;99.90
21163;DHT22;10739;52.198;20.908;2023-07-13T01:44:30;18.20;99.90
21163;DHT22;10739;52.198;20.908;2023-07-13T01:46:57;18.20;99.90
21163;DHT22;10739;52.198;20.908;2023-07-13T01:49:23;18.20;99.90
21163;DHT22;10739;52.198;20.908;2023-07-13T01:51:49;18.20;99.90
21163;DHT22;10739;52.198;20.908;2023-07-13T01:54:16;18.30;99.90
21163;DHT22;10739;52.198;20.908;2023-07-13T01:56:42;18.30;99.90
21163;DHT22;10739;52.198;20.908;2023-07-13T01:59:08;18.30;99.90
21163;DHT22;10739;52.198;20.908;2023-07-13T02:01:35;18.30;99.90
21163;DHT22;10739;52.198;20.908;2023-07-13T02:04:02;18.30;99.90
21163;DHT22;10739;52.198;20.908;2023-07-13T02:06:28;18.30;99.90
21163;DHT22;10739;52.198;20.908;2023-07-13T02:08:55;18.30;99.90
21163;DHT22;10739;52.198;20.908;2023-07-13T02:11:21;18.30;99.90
21163;DHT22;10739;52.198;20.908;2023-07-13T02:13:47;18.30;99.90
21163;DHT22;10739;52.198;20.908;2023-07-13T02:16:14;18.30;99.90
21163;DHT22;10739;52.198;20.908;2023-07-13T02:18:40;18.30;99.90
21163;DHT22;10739;52.198;20.908;2023-07-13T02:21:07;18.30;99.90
21163;DHT22;10739;52.198;20.908;2023-07-13T02:23:33;18.30;99.90
21163;DHT22;10739;52.198;20.908;2023-07-13T02:26:01;18.30;99.90
21163;DHT22;10739;52.198;20.908;2023-07-13T02:28:29;18.30;99.90
21163;DHT22;10739;52.198;20.908;2023-07-13T02:30:55;18.30;99.90
21163;DHT22;10739;52.198;20.908;2023-07-13T02:33:21;18.30;99.90
21163;DHT22;10739;52.198;20.908;2023-07-13T02:35:47;18.30;99.90
21163;DHT22;10739;52.198;20.908;2023-07-13T02:38:14;18.30;99.90
21163;DHT22;10739;52.198;20.908;2023-07-13T02:40:41;18.30;99.90
21163;DHT22;10739;52.198;20.908;2023-07-13T02:43:07;18.30;99.90
21163;DHT22;10739;52.198;20.908;2023-07-13T02:45:33;18.30;99.90
21163;DHT22;10739;52.198;20.908;2023-07-13T02:47:59;18.30;99.90
21163;DHT22;10739;52.198;20.908;2023-07-13T02:50:25;18.30;99.90
21163;DHT22;10739;52.198;20.908;2023-07-13T02:52:52;18.30;99.90
21163;DHT22;10739;52.198;20.908;2023-07-13T02:55:18;18.40;99.90
21163;DHT22;10739;52.198;20.908;2023-07-13T02:57:44;18.40;99.90
21163;DHT22;10739;52.198;20.908;2023-07-13T03:00:10;18.30;99.90
21163;DHT22;10739;52.198;20.908;2023-07-13T03:02:37;18.40;99.90
21163;DHT22;10739;52.198;20.908;2023-07-13T03:05:04;18.30;99.90
21163;DHT22;10739;52.198;20.908;2023-07-13T03:07:30;18.30;99.90
21163;DHT22;10739;52.198;20.908;2023-07-13T03:09:57;18.30;99.90
21163;DHT22;10739;52.198;20.908;2023-07-13T03:12:24;18.30;99.90
21163;DHT22;10739;52.198;20.908;2023-07-13T03:14:51;18.30;99.90
21163;DHT22;10739;52.198;20.908;2023-07-13T03:17:17;18.30;99.90
21163;DHT22;10739;52.198;20.908;2023-07-13T03:19:43;18.30;99.90
21163;DHT22;10739;52.198;20.908;2023-07-13T03:22:10;18.30;99.90
21163;DHT22;10739;52.198;20.908;2023-07-13T03:24:36;18.30;99.90
21163;DHT22;10739;52.198;20.908;2023-07-13T03:27:04;18.20;99.90
21163;DHT22;10739;52.198;20.908;2023-07-13T03:29:31;18.20;99.90
21163;DHT22;10739;52.198;20.908;2023-07-13T03:31:58;18.20;99.90
21163;DHT22;10739;52.198;20.908;2023-07-13T03:34:24;18.30;99.90
21163;DHT22;10739;52.198;20.908;2023-07-13T03:36:53;18.30;99.90
21163;DHT22;10739;52.198;20.908;2023-07-13T03:39:20;18.30;99.90
21163;DHT22;10739;52.198;20.908;2023-07-13T03:41:46;18.30;99.90
21163;DHT22;10739;52.198;20.908;2023-07-13T03:44:15;18.30;99.90
21163;DHT22;10739;52.198;20.908;2023-07-13T03:46:43;18.30;99.90
21163;DHT22;10739;52.198;20.908;2023-07-13T03:49:10;18.30;99.90
21163;DHT22;10739;52.198;20.908;2023-07-13T03:51:36;18.30;99.90
21163;DHT22;10739;52.198;20.908;2023-07-13T03:54:03;18.40;99.90
21163;DHT22;10739;52.198;20.908;2023-07-13T03:56:30;18.40;99.90
21163;DHT22;10739;52.198;20.908;2023-07-13T03:58:58;18.50;99.90
21163;DHT22;10739;52.198;20.908;2023-07-13T04:01:24;18.60;99.90
21163;DHT22;10739;52.198;20.908;2023-07-13T04:03:51;18.60;99.90
21163;DHT22;10739;52.198;20.908;2023-07-13T04:06:20;18.70;99.90
21163;DHT22;10739;52.198;20.908;2023-07-13T04:08:52;18.70;99.90
21163;DHT22;10739;52.198;20.908;2023-07-13T04:11:22;18.80;99.90
21163;DHT22;10739;52.198;20.908;2023-07-13T04:13:49;18.90;99.90
21163;DHT22;10739;52.198;20.908;2023-07-13T04:16:17;19.00;99.90
21163;DHT22;10739;52.198;20.908;2023-07-13T04:18:45;19.20;99.90
21163;DHT22;10739;52.198;20.908;2023-07-13T04:21:12;19.30;99.90
21163;DHT22;10739;52.198;20.908;2023-07-13T04:23:39;19.50;99.90
21163;DHT22;10739;52.198;20.908;2023-07-13T04:26:06;19.70;99.90
21163;DHT22;10739;52.198;20.908;2023-07-13T04:28:33;19.80;99.90
21163;DHT22;10739;52.198;20.908;2023-07-13T04:30:59;19.90;99.90
21163;DHT22;10739;52.198;20.908;2023-07-13T04:33:26;20.00;99.90
21163;DHT22;10739;52.198;20.908;2023-07-13T04:35:54;20.00;99.90
21163;DHT22;10739;52.198;20.908;2023-07-13T04:38:27;20.10;99.90
21163;DHT22;10739;52.198;20.908;2023-07-13T04:40:59;20.10;99.90
21163;DHT22;10739;52.198;20.908;2023-07-13T04:43:28;20.20;99.90
21163;DHT22;10739;52.198;20.908;2023-07-13T04:45:55;20.30;99.90
21163;DHT22;10739;52.198;20.908;2023-07-13T04:48:22;20.40;99.90
21163;DHT22;10739;52.198;20.908;2023-07-13T04:50:55;20.50;99.90
21163;DHT22;10739;52.198;20.908;2023-07-13T04:53:23;20.50;99.90
21163;DHT22;10739;52.198;20.908;2023-07-13T04:55:49;20.60;99.90
21163;DHT22;10739;52.198;20.908;2023-07-13T04:58:15;20.60;99.90
21163;DHT22;10739;52.198;20.908;2023-07-13T05:00:42;20.70;99.90
21163;DHT22;10739;52.198;20.908;2023-07-13T05:03:08;20.80;99.90
21163;DHT22;10739;52.198;20.908;2023-07-13T05:05:34;20.80;99.90
21163;DHT22;10739;52.198;20.908;2023-07-13T05:08:01;20.90;99.90
21163;DHT22;10739;52.198;20.908;2023-07-13T05:10:28;20.90;99.90
21163;DHT22;10739;52.198;20.908;2023-07-13T05:12:54;21.00;99.90
21163;DHT22;10739;52.198;20.908;2023-07-13T05:15:23;21.00;99.90
21163;DHT22;10739;52.198;20.908;2023-07-13T05:17:51;21.10;99.90
21163;DHT22;10739;52.198;20.908;2023-07-13T05:20:18;21.10;99.90
21163;DHT22;10739;52.198;20.908;2023-07-13T05:22:45;21.10;99.90
21163;DHT22;10739;52.198;20.908;2023-07-13T05:25:14;21.20;99.90
21163;DHT22;10739;52.198;20.908;2023-07-13T05:27:41;21.20;99.90
21163;DHT22;10739;52.198;20.908;2023-07-13T05:30:07;21.20;99.90
21163;DHT22;10739;52.198;20.908;2023-07-13T05:32:36;21.20;99.90
21163;DHT22;10739;52.198;20.908;2023-07-13T05:35:03;21.30;99.90
21163;DHT22;10739;52.198;20.908;2023-07-13T05:37:29;21.30;99.90
21163;DHT22;10739;52.198;20.908;2023-07-13T05:39:55;21.30;99.90
21163;DHT22;10739;52.198;20.908;2023-07-13T05:42:21;21.50;99.90
21163;DHT22;10739;52.198;20.908;2023-07-13T05:44:47;21.60;99.90
21163;DHT22;10739;52.198;20.908;2023-07-13T05:47:14;21.70;99.90
21163;DHT22;10739;52.198;20.908;2023-07-13T05:49:40;21.90;99.90
21163;DHT22;10739;52.198;20.908;2023-07-13T05:52:07;21.80;99.90
21163;DHT22;10739;52.198;20.908;2023-07-13T05:54:33;21.90;99.90
21163;DHT22;10739;52.198;20.908;2023-07-13T05:56:59;21.90;99.90
21163;DHT22;10739;52.198;20.908;2023-07-13T05:59:26;22.10;99.90
21163;DHT22;10739;52.198;20.908;2023-07-13T06:01:52;22.20;99.90
21163;DHT22;10739;52.198;20.908;2023-07-13T06:04:19;22.40;99.90
21163;DHT22;10739;52.198;20.908;2023-07-13T06:06:45;22.50;99.90
21163;DHT22;10739;52.198;20.908;2023-07-13T06:09:12;22.70;99.90
21163;DHT22;10739;52.198;20.908;2023-07-13T06:11:38;22.70;99.90
21163;DHT22;10739;52.198;20.908;2023-07-13T06:14:04;22.80;99.90
21163;DHT22;10739;52.198;20.908;2023-07-13T06:16:31;22.80;99.90
21163;DHT22;10739;52.198;20.908;2023-07-13T06:18:57;22.80;99.90
21163;DHT22;10739;52.198;20.908;2023-07-13T06:21:24;22.80;99.90
21163;DHT22;10739;52.198;20.908;2023-07-13T06:23:51;22.90;99.90
21163;DHT22;10739;52.198;20.908;2023-07-13T06:26:19;23.00;99.90
21163;DHT22;10739;52.198;20.908;2023-07-13T06:28:46;23.00;99.90
21163;DHT22;10739;52.198;20.908;2023-07-13T06:31:13;23.00;99.90
21163;DHT22;10739;52.198;20.908;2023-07-13T06:33:40;23.00;99.90
21163;DHT22;10739;52.198;20.908;2023-07-13T06:36:08;23.10;99.90
21163;DHT22;10739;52.198;20.908;2023-07-13T06:38:35;23.20;99.90
21163;DHT22;10739;52.198;20.908;2023-07-13T06:41:01;23.40;99.90
21163;DHT22;10739;52.198;20.908;2023-07-13T06:43:27;23.60;99.90
21163;DHT22;10739;52.198;20.908;2023-07-13T06:45:55;23.70;99.90
21163;DHT22;10739;52.198;20.908;2023-07-13T06:48:22;23.70;99.90
21163;DHT22;10739;52.198;20.908;2023-07-13T06:50:49;23.90;99.90
21163;DHT22;10739;52.198;20.908;2023-07-13T06:53:18;24.00;99.90
21163;DHT22;10739;52.198;20.908;2023-07-13T06:55:45;23.90;99.90
21163;DHT22;10739;52.198;20.908;2023-07-13T06:58:12;23.90;99.90
21163;DHT22;10739;52.198;20.908;2023-07-13T07:00:39;23.90;99.90
21163;DHT22;10739;52.198;20.908;2023-07-13T07:03:06;23.90;99.90
21163;DHT22;10739;52.198;20.908;2023-07-13T07:05:32;24.00;99.90
21163;DHT22;10739;52.198;20.908;2023-07-13T07:07:58;24.00;99.90
21163;DHT22;10739;52.198;20.908;2023-07-13T07:10:26;24.20;99.90
21163;DHT22;10739;52.198;20.908;2023-07-13T07:12:52;24.40;99.90
21163;DHT22;10739;52.198;20.908;2023-07-13T07:15:18;24.40;99.90
21163;DHT22;10739;52.198;20.908;2023-07-13T07:17:45;24.40;99.90
21163;DHT22;10739;52.198;20.908;2023-07-13T07:20:12;24.30;99.90
21163;DHT22;10739;52.198;20.908;2023-07-13T07:22:39;24.50;99.90
21163;DHT22;10739;52.198;20.908;2023-07-13T07:25:05;24.60;99.90
21163;DHT22;10739;52.198;20.908;2023-07-13T07:27:32;24.60;99.90
21163;DHT22;10739;52.198;20.908;2023-07-13T07:29:59;24.60;99.90
21163;DHT22;10739;52.198;20.908;2023-07-13T07:32:28;24.70;99.90
21163;DHT22;10739;52.198;20.908;2023-07-13T07:34:57;24.60;99.90
21163;DHT22;10739;52.198;20.908;2023-07-13T07:37:24;24.60;99.90
21163;DHT22;10739;52.198;20.908;2023-07-13T07:39:50;24.60;99.90
21163;DHT22;10739;52.198;20.908;2023-07-13T07:42:17;24.60;99.90
21163;DHT22;10739;52.198;20.908;2023-07-13T07:44:43;24.60;99.90
21163;DHT22;10739;52.198;20.908;2023-07-13T07:47:09;24.70;99.90
21163;DHT22;10739;52.198;20.908;2023-07-13T07:49:36;24.90;99.90
21163;DHT22;10739;52.198;20.908;2023-07-13T07:52:02;25.00;99.90
21163;DHT22;10739;52.198;20.908;2023-07-13T07:54:29;25.10;99.90
21163;DHT22;10739;52.198;20.908;2023-07-13T07:56:55;25.40;99.90
21163;DHT22;10739;52.198;20.908;2023-07-13T07:59:21;25.40;99.90
21163;DHT22;10739;52.198;20.908;2023-07-13T08:01:47;25.40;99.90
21163;DHT22;10739;52.198;20.908;2023-07-13T08:04:16;25.50;99.50
21163;DHT22;10739;52.198;20.908;2023-07-13T08:06:42;25.40;99.70
21163;DHT22;10739;52.198;20.908;2023-07-13T08:09:08;25.60;99.90
21163;DHT22;10739;52.198;20.908;2023-07-13T08:11:34;25.80;99.90
21163;DHT22;10739;52.198;20.908;2023-07-13T08:14:01;25.90;99.30
21163;DHT22;10739;52.198;20.908;2023-07-13T08:16:27;26.00;99.00
21163;DHT22;10739;52.198;20.908;2023-07-13T08:18:53;26.20;99.00
21163;DHT22;10739;52.198;20.908;2023-07-13T08:21:20;26.00;97.70
21163;DHT22;10739;52.198;20.908;2023-07-13T08:23:47;25.80;98.40
21163;DHT22;10739;52.198;20.908;2023-07-13T08:26:13;25.80;98.50
21163;DHT22;10739;52.198;20.908;2023-07-13T08:28:40;26.00;98.90
21163;DHT22;10739;52.198;20.908;2023-07-13T08:31:07;26.20;98.60
21163;DHT22;10739;52.198;20.908;2023-07-13T08:33:35;26.30;98.60
21163;DHT22;10739;52.198;20.908;2023-07-13T08:36:03;26.60;98.70
21163;DHT22;10739;52.198;20.908;2023-07-13T08:38:30;26.70;98.40
21163;DHT22;10739;52.198;20.908;2023-07-13T08:40:57;26.90;98.40
21163;DHT22;10739;52.198;20.908;2023-07-13T08:43:35;27.10;97.90
21163;DHT22;10739;52.198;20.908;2023-07-13T08:49:05;27.20;97.50
21163;DHT22;10739;52.198;20.908;2023-07-13T08:52:01;27.10;98.00
21163;DHT22;10739;52.198;20.908;2023-07-13T08:54:35;27.10;98.30
21163;DHT22;10739;52.198;20.908;2023-07-13T08:57:18;26.90;98.60
21163;DHT22;10739;52.198;20.908;2023-07-13T08:59:47;27.20;98.30
21163;DHT22;10739;52.198;20.908;2023-07-13T09:05:14;27.00;98.50
21163;DHT22;10739;52.198;20.908;2023-07-13T09:16:37;28.10;97.70
21163;DHT22;10739;52.198;20.908;2023-07-13T09:19:06;28.10;98.00
21163;DHT22;10739;52.198;20.908;2023-07-13T09:21:40;28.30;98.10
21163;DHT22;10739;52.198;20.908;2023-07-13T09:27:19;28.30;97.40
21163;DHT22;10739;52.198;20.908;2023-07-13T09:30:02;28.30;97.80
21163;DHT22;10739;52.198;20.908;2023-07-13T09:32:47;28.10;97.60
21163;DHT22;10739;52.198;20.908;2023-07-13T09:35:20;27.50;97.80
21163;DHT22;10739;52.198;20.908;2023-07-13T09:37:58;27.10;98.60
21163;DHT22;10739;52.198;20.908;2023-07-13T09:40:46;26.90;99.20
21163;DHT22;10739;52.198;20.908;2023-07-13T09:43:38;26.80;99.00
21163;DHT22;10739;52.198;20.908;2023-07-13T09:46:07;26.80;99.20
21163;DHT22;10739;52.198;20.908;2023-07-13T09:48:47;27.00;99.30
21163;DHT22;10739;52.198;20.908;2023-07-13T09:51:15;27.10;98.60
21163;DHT22;10739;52.198;20.908;2023-07-13T09:53:43;27.00;98.90
21163;DHT22;10739;52.198;20.908;2023-07-13T09:56:27;26.70;97.30
21163;DHT22;10739;52.198;20.908;2023-07-13T09:58:56;26.30;98.10
21163;DHT22;10739;52.198;20.908;2023-07-13T10:01:35;25.80;98.10
21163;DHT22;10739;52.198;20.908;2023-07-13T10:04:14;25.50;99.00
21163;DHT22;10739;52.198;20.908;2023-07-13T10:06:46;25.30;99.30
21163;DHT22;10739;52.198;20.908;2023-07-13T10:09:17;25.10;99.00
21163;DHT22;10739;52.198;20.908;2023-07-13T10:11:44;25.00;99.60
21163;DHT22;10739;52.198;20.908;2023-07-13T10:14:21;24.80;99.90
21163;DHT22;10739;52.198;20.908;2023-07-13T10:17:00;24.70;99.20
21163;DHT22;10739;52.198;20.908;2023-07-13T10:19:31;24.50;99.50
21163;DHT22;10739;52.198;20.908;2023-07-13T10:22:02;24.30;99.90
21163;DHT22;10739;52.198;20.908;2023-07-13T10:24:46;24.10;99.90
21163;DHT22;10739;52.198;20.908;2023-07-13T10:27:18;23.90;99.90
21163;DHT22;10739;52.198;20.908;2023-07-13T10:30:02;23.70;99.90
21163;DHT22;10739;52.198;20.908;2023-07-13T10:32:37;23.40;99.90
21163;DHT22;10739;52.198;20.908;2023-07-13T10:35:04;23.10;99.90
21163;DHT22;10739;52.198;20.908;2023-07-13T10:43:55;22.10;99.90
21163;DHT22;10739;52.198;20.908;2023-07-13T10:46:25;21.70;99.90
21163;DHT22;10739;52.198;20.908;2023-07-13T10:49:03;21.20;99.90
21163;DHT22;10739;52.198;20.908;2023-07-13T10:51:33;20.50;99.90
21163;DHT22;10739;52.198;20.908;2023-07-13T10:54:20;19.80;99.90
21163;DHT22;10739;52.198;20.908;2023-07-13T10:57:06;19.40;99.90
21163;DHT22;10739;52.198;20.908;2023-07-13T10:59:34;19.10;99.90
21163;DHT22;10739;52.198;20.908;2023-07-13T11:04:53;18.70;99.90
21163;DHT22;10739;52.198;20.908;2023-07-13T11:07:23;18.60;99.90
21163;DHT22;10739;52.198;20.908;2023-07-13T11:09:59;18.60;99.90
21163;DHT22;10739;52.198;20.908;2023-07-13T11:12:53;18.60;99.90
21163;DHT22;10739;52.198;20.908;2023-07-13T11:15:43;18.60;99.90
21163;DHT22;10739;52.198;20.908;2023-07-13T11:18:23;18.60;99.90
21163;DHT22;10739;52.198;20.908;2023-07-13T11:20:51;18.60;99.90
21163;DHT22;10739;52.198;20.908;2023-07-13T11:23:27;18.70;99.90
21163;DHT22;10739;52.198;20.908;2023-07-13T11:25:57;18.70;99.90
21163;DHT22;10739;52.198;20.908;2023-07-13T11:28:26;18.60;99.90
21163;DHT22;10739;52.198;20.908;2023-07-13T11:36:21;18.70;99.90
21163;DHT22;10739;52.198;20.908;2023-07-13T11:39:03;18.80;99.90
21163;DHT22;10739;52.198;20.908;2023-07-13T11:41:45;18.70;99.90
21163;DHT22;10739;52.198;20.908;2023-07-13T11:44:19;18.70;99.90
21163;DHT22;10739;52.198;20.908;2023-07-13T11:46:55;18.70;99.90
21163;DHT22;10739;52.198;20.908;2023-07-13T11:49:29;18.60;99.90
21163;DHT22;10739;52.198;20.908;2023-07-13T11:51:57;18.50;99.90
21163;DHT22;10739;52.198;20.908;2023-07-13T11:54:28;18.40;99.90
21163;DHT22;10739;52.198;20.908;2023-07-13T11:57:03;18.40;99.90
21163;DHT22;10739;52.198;20.908;2023-07-13T11:59:43;18.40;99.90
21163;DHT22;10739;52.198;20.908;2023-07-13T12:02:26;18.30;99.90
21163;DHT22;10739;52.198;20.908;2023-07-13T12:04:56;18.30;99.90
21163;DHT22;10739;52.198;20.908;2023-07-13T12:07:23;18.40;99.90
21163;DHT22;10739;52.198;20.908;2023-07-13T12:09:49;18.50;99.90
21163;DHT22;10739;52.198;20.908;2023-07-13T12:12:22;18.50;99.90
21163;DHT22;10739;52.198;20.908;2023-07-13T12:14:52;18.60;99.90
21163;DHT22;10739;52.198;20.908;2023-07-13T12:17:20;18.50;99.90
21163;DHT22;10739;52.198;20.908;2023-07-13T12:19:50;18.60;99.90
21163;DHT22;10739;52.198;20.908;2023-07-13T12:22:20;18.70;99.90
21163;DHT22;10739;52.198;20.908;2023-07-13T12:24:47;18.80;99.90
21163;DHT22;10739;52.198;20.908;2023-07-13T12:27:27;18.90;99.90
21163;DHT22;10739;52.198;20.908;2023-07-13T12:30:00;18.90;99.90
21163;DHT22;10739;52.198;20.908;2023-07-13T12:32:28;18.90;99.90
21163;DHT22;10739;52.198;20.908;2023-07-13T12:35:13;18.90;99.90
21163;DHT22;10739;52.198;20.908;2023-07-13T12:37:43;19.00;99.90
21163;DHT22;10739;52.198;20.908;2023-07-13T12:40:19;19.00;99.90
21163;DHT22;10739;52.198;20.908;2023-07-13T12:42:52;19.00;99.90
21163;DHT22;10739;52.198;20.908;2023-07-13T12:45:27;18.90;99.90
21163;DHT22;10739;52.198;20.908;2023-07-13T12:48:19;18.90;99.90
21163;DHT22;10739;52.198;20.908;2023-07-13T12:50:48;18.90;99.90
21163;DHT22;10739;52.198;20.908;2023-07-13T12:53:23;19.00;99.90
21163;DHT22;10739;52.198;20.908;2023-07-13T12:55:59;19.00;99.90
21163;DHT22;10739;52.198;20.908;2023-07-13T12:58:40;19.10;99.90
21163;DHT22;10739;52.198;20.908;2023-07-13T13:01:13;19.10;99.90
21163;DHT22;10739;52.198;20.908;2023-07-13T13:03:48;19.10;99.90
21163;DHT22;10739;52.198;20.908;2023-07-13T13:06:26;19.30;99.90
21163;DHT22;10739;52.198;20.908;2023-07-13T13:08:57;19.40;99.90
21163;DHT22;10739;52.198;20.908;2023-07-13T13:11:25;19.50;99.90
21163;DHT22;10739;52.198;20.908;2023-07-13T13:13:53;19.50;99.90
21163;DHT22;10739;52.198;20.908;2023-07-13T13:18:56;19.50;99.90
21163;DHT22;10739;52.198;20.908;2023-07-13T13:21:25;19.60;99.90
21163;DHT22;10739;52.198;20.908;2023-07-13T13:23:52;19.60;99.90
21163;DHT22;10739;52.198;20.908;2023-07-13T13:26:20;19.60;99.90
21163;DHT22;10739;52.198;20.908;2023-07-13T13:28:48;19.70;99.90
21163;DHT22;10739;52.198;20.908;2023-07-13T13:31:15;19.70;99.90
21163;DHT22;10739;52.198;20.908;2023-07-13T13:33:44;19.70;99.90
21163;DHT22;10739;52.198;20.908;2023-07-13T13:36:19;19.80;99.90
21163;DHT22;10739;52.198;20.908;2023-07-13T13:38:48;19.90;99.90
21163;DHT22;10739;52.198;20.908;2023-07-13T13:41:16;19.90;99.90
21163;DHT22;10739;52.198;20.908;2023-07-13T13:43:43;20.00;99.90
21163;DHT22;10739;52.198;20.908;2023-07-13T13:46:23;20.00;99.90
21163;DHT22;10739;52.198;20.908;2023-07-13T13:48:51;20.10;99.90
21163;DHT22;10739;52.198;20.908;2023-07-13T13:51:21;20.10;99.90
21163;DHT22;10739;52.198;20.908;2023-07-13T13:53:49;20.20;99.90
21163;DHT22;10739;52.198;20.908;2023-07-13T13:56:18;20.20;99.90
21163;DHT22;10739;52.198;20.908;2023-07-13T13:58:45;20.30;99.90
21163;DHT22;10739;52.198;20.908;2023-07-13T14:01:19;20.20;99.90
21163;DHT22;10739;52.198;20.908;2023-07-13T14:03:47;20.20;99.90
21163;DHT22;10739;52.198;20.908;2023-07-13T14:06:15;20.10;99.90
21163;DHT22;10739;52.198;20.908;2023-07-13T14:08:42;20.10;99.90
21163;DHT22;10739;52.198;20.908;2023-07-13T14:11:14;20.20;99.90
21163;DHT22;10739;52.198;20.908;2023-07-13T14:13:50;20.20;99.90
21163;DHT22;10739;52.198;20.908;2023-07-13T14:16:21;20.20;99.90
21163;DHT22;10739;52.198;20.908;2023-07-13T14:18:49;20.20;99.90
21163;DHT22;10739;52.198;20.908;2023-07-13T14:21:17;20.20;99.90
21163;DHT22;10739;52.198;20.908;2023-07-13T14:23:47;20.30;99.90
21163;DHT22;10739;52.198;20.908;2023-07-13T14:26:19;20.40;99.90
21163;DHT22;10739;52.198;20.908;2023-07-13T14:28:51;20.40;99.90
21163;DHT22;10739;52.198;20.908;2023-07-13T14:31:19;20.50;99.90
21163;DHT22;10739;52.198;20.908;2023-07-13T14:33:46;20.50;99.90
21163;DHT22;10739;52.198;20.908;2023-07-13T14:36:30;20.50;99.90
21163;DHT22;10739;52.198;20.908;2023-07-13T14:38:59;20.50;99.90
21163;DHT22;10739;52.198;20.908;2023-07-13T14:41:27;20.60;99.90
21163;DHT22;10739;52.198;20.908;2023-07-13T14:43:53;20.70;99.90
21163;DHT22;10739;52.198;20.908;2023-07-13T14:46:30;20.70;99.90
21163;DHT22;10739;52.198;20.908;2023-07-13T14:49:30;20.70;99.90
21163;DHT22;10739;52.198;20.908;2023-07-13T14:51:50;20.70;99.90
21163;DHT22;10739;52.198;20.908;2023-07-13T14:54:17;20.60;99.90
21163;DHT22;10739;52.198;20.908;2023-07-13T14:56:43;20.50;99.90
21163;DHT22;10739;52.198;20.908;2023-07-13T14:59:10;20.50;99.90
21163;DHT22;10739;52.198;20.908;2023-07-13T15:01:39;20.60;99.90
21163;DHT22;10739;52.198;20.908;2023-07-13T15:04:06;20.60;99.90
21163;DHT22;10739;52.198;20.908;2023-07-13T15:06:52;20.60;99.90
21163;DHT22;10739;52.198;20.908;2023-07-13T15:09:21;20.40;99.90
21163;DHT22;10739;52.198;20.908;2023-07-13T15:11:47;20.30;99.90
21163;DHT22;10739;52.198;20.908;2023-07-13T15:14:13;20.20;99.90
21163;DHT22;10739;52.198;20.908;2023-07-13T15:16:39;20.10;99.90
21163;DHT22;10739;52.198;20.908;2023-07-13T15:19:05;20.10;99.90
21163;DHT22;10739;52.198;20.908;2023-07-13T15:21:34;20.10;99.90
21163;DHT22;10739;52.198;20.908;2023-07-13T15:24:03;20.10;99.90
21163;DHT22;10739;52.198;20.908;2023-07-13T15:26:29;20.10;99.90
21163;DHT22;10739;52.198;20.908;2023-07-13T15:28:55;20.00;99.90
21163;DHT22;10739;52.198;20.908;2023-07-13T15:31:24;20.00;99.90
21163;DHT22;10739;52.198;20.908;2023-07-13T15:33:55;20.00;99.90
21163;DHT22;10739;52.198;20.908;2023-07-13T15:36:23;20.00;99.90
21163;DHT22;10739;52.198;20.908;2023-07-13T15:38:54;19.90;99.90
21163;DHT22;10739;52.198;20.908;2023-07-13T15:41:26;20.00;99.90
21163;DHT22;10739;52.198;20.908;2023-07-13T15:43:56;20.00;99.90
21163;DHT22;10739;52.198;20.908;2023-07-13T15:46:27;20.00;99.90
21163;DHT22;10739;52.198;20.908;2023-07-13T15:48:54;20.00;99.90
21163;DHT22;10739;52.198;20.908;2023-07-13T15:53:53;19.90;99.90
21163;DHT22;10739;52.198;20.908;2023-07-13T15:56:27;19.90;99.90
21163;DHT22;10739;52.198;20.908;2023-07-13T15:58:55;19.90;99.90
21163;DHT22;10739;52.198;20.908;2023-07-13T16:01:23;19.90;99.90
21163;DHT22;10739;52.198;20.908;2023-07-13T16:03:50;19.90;99.90
21163;DHT22;10739;52.198;20.908;2023-07-13T16:06:37;19.90;99.90